Time;durP1;ratioP1;P1;durP2;ratioP2;P2;SDS_P1;SDS_P2;PMS_P1;PMS_P2;Temp;Humidity;BMP_temperature;BMP_pressure;BME280_temperature;BME280_humidity;BME280_pressure;Samples;Min_cycle;Max_cycle;Signal;HPM_P1;HPM_P2
2023/05/14 00:01:30;;;;;;;;;;;20.00;58.70;;;;;;5092807;28;19931;-67
2023/05/14 00:03:56;;;;;;;;;;;20.00;58.70;;;;;;5092633;28;19966;-67
2023/05/14 00:06:21;;;;;;;;;;;20.00;58.70;;;;;;5092696;28;20324;-67
2023/05/14 00:08:47;;;;;;;;;;;20.00;58.70;;;;;;5074710;28;20279;-67
2023/05/14 00:11:12;;;;;;;;;;;20.00;58.70;;;;;;5074010;28;19930;-67
2023/05/14 00:13:38;;;;;;;;;;;20.00;58.70;;;;;;5074510;28;19920;-67
2023/05/14 00:16:03;;;;;;;;;;;20.00;58.70;;;;;;5092664;28;19945;-67
2023/05/14 00:18:29;;;;;;;;;;;19.90;58.70;;;;;;5074443;28;20490;-67
2023/05/14 00:20:54;;;;;;;;;;;20.00;58.70;;;;;;5091421;28;19936;-67
2023/05/14 00:23:20;;;;;;;;;;;19.90;58.70;;;;;;5074221;28;19974;-68
2023/05/14 00:25:46;;;;;;;;;;;20.00;58.80;;;;;;5092256;28;19927;-67
2023/05/14 00:28:11;;;;;;;;;;;19.90;58.70;;;;;;5074239;28;19920;-67
2023/05/14 00:30:38;;;;;;;;;;;19.90;58.70;;;;;;5074600;28;19931;-67
2023/05/14 00:33:04;;;;;;;;;;;19.90;58.80;;;;;;5092510;28;20315;-67
2023/05/14 00:35:30;;;;;;;;;;;19.90;58.80;;;;;;5074474;28;19924;-67
2023/05/14 00:37:55;;;;;;;;;;;19.90;58.80;;;;;;5092386;28;19924;-67
2023/05/14 00:40:24;;;;;;;;;;;19.90;58.80;;;;;;5092198;28;19943;-67
2023/05/14 00:42:50;;;;;;;;;;;19.80;58.80;;;;;;5074076;28;19954;-67
2023/05/14 00:45:15;;;;;;;;;;;19.90;58.80;;;;;;5074035;28;19924;-67
2023/05/14 00:47:40;;;;;;;;;;;19.90;58.90;;;;;;5092247;28;19920;-67
2023/05/14 00:50:07;;;;;;;;;;;19.80;58.90;;;;;;5092250;28;20031;-67
2023/05/14 00:52:32;;;;;;;;;;;19.80;58.90;;;;;;5092172;28;19920;-67
2023/05/14 00:54:59;;;;;;;;;;;19.80;58.90;;;;;;5074307;28;19927;-67
2023/05/14 00:57:25;;;;;;;;;;;19.80;58.90;;;;;;5074279;28;19982;-67
2023/05/14 00:59:50;;;;;;;;;;;19.80;58.90;;;;;;5092029;28;20146;-67
2023/05/14 01:02:16;;;;;;;;;;;19.80;58.90;;;;;;5073839;28;19956;-67
2023/05/14 01:04:41;;;;;;;;;;;19.80;58.90;;;;;;5091945;28;19982;-67
2023/05/14 01:07:14;;;;;;;;;;;19.80;59.00;;;;;;5073898;28;19920;-67
2023/05/14 01:10:00;;;;;;;;;;;19.80;59.00;;;;;;5092013;28;19975;-67
2023/05/14 01:12:34;;;;;;;;;;;19.70;59.00;;;;;;5074030;28;20283;-67
2023/05/14 01:17:44;;;;;;;;;;;19.70;59.00;;;;;;5089985;28;19919;-67
2023/05/14 01:20:10;;;;;;;;;;;19.70;59.00;;;;;;5088568;28;20260;-68
2023/05/14 01:22:36;;;;;;;;;;;19.70;59.00;;;;;;5088788;28;19970;-67
2023/05/14 01:25:01;;;;;;;;;;;19.70;59.10;;;;;;5088575;28;20015;-66
2023/05/14 01:27:47;;;;;;;;;;;19.70;59.10;;;;;;5088352;28;19920;-67
2023/05/14 01:32:55;;;;;;;;;;;19.70;59.10;;;;;;5110165;27;19912;-67
2023/05/14 01:35:22;;;;;;;;;;;19.60;59.10;;;;;;5108980;28;20368;-67
2023/05/14 01:37:48;;;;;;;;;;;19.60;59.10;;;;;;5108857;28;20438;-67
2023/05/14 01:40:14;;;;;;;;;;;19.60;59.10;;;;;;5109187;28;19931;-67
2023/05/14 01:42:40;;;;;;;;;;;19.60;59.10;;;;;;5110042;28;19920;-67
2023/05/14 01:45:06;;;;;;;;;;;19.60;59.10;;;;;;5110094;28;19920;-67
2023/05/14 01:47:31;;;;;;;;;;;19.60;59.10;;;;;;5108945;28;19924;-67
2023/05/14 01:49:57;;;;;;;;;;;19.60;59.10;;;;;;5108990;28;19920;-67
2023/05/14 01:52:23;;;;;;;;;;;19.60;59.10;;;;;;5108565;28;19924;-67
2023/05/14 01:54:48;;;;;;;;;;;19.60;59.20;;;;;;5110083;28;20014;-67
2023/05/14 01:57:13;;;;;;;;;;;19.50;59.10;;;;;;5108507;28;19969;-67
2023/05/14 01:59:39;;;;;;;;;;;19.50;59.10;;;;;;5108848;28;20011;-68
2023/05/14 02:02:04;;;;;;;;;;;19.50;59.10;;;;;;5109745;28;19927;-67
2023/05/14 02:04:30;;;;;;;;;;;19.50;59.20;;;;;;5108345;28;19920;-67
2023/05/14 02:06:55;;;;;;;;;;;19.50;59.20;;;;;;5109677;28;20006;-68
2023/05/14 02:09:21;;;;;;;;;;;19.50;59.20;;;;;;5108587;28;20025;-67
2023/05/14 02:11:46;;;;;;;;;;;19.50;59.20;;;;;;5108337;28;19981;-67
2023/05/14 02:14:14;;;;;;;;;;;19.50;59.30;;;;;;5108613;28;20386;-67
2023/05/14 02:16:39;;;;;;;;;;;19.50;59.20;;;;;;5108285;28;19920;-67
2023/05/14 02:19:05;;;;;;;;;;;19.50;59.30;;;;;;5108377;28;20029;-68
2023/05/14 02:21:30;;;;;;;;;;;19.50;59.20;;;;;;5108414;28;19920;-68
2023/05/14 02:23:56;;;;;;;;;;;19.50;59.20;;;;;;5108193;28;19927;-67
2023/05/14 02:26:22;;;;;;;;;;;19.50;59.20;;;;;;5108740;28;19920;-66
2023/05/14 02:28:47;;;;;;;;;;;19.50;59.20;;;;;;5107651;28;19920;-68
2023/05/14 02:31:13;;;;;;;;;;;19.40;59.20;;;;;;5107874;28;19924;-67
2023/05/14 02:33:39;;;;;;;;;;;19.40;59.20;;;;;;5107769;28;19920;-67
2023/05/14 02:36:04;;;;;;;;;;;19.40;59.20;;;;;;5107693;28;20408;-67
2023/05/14 02:38:30;;;;;;;;;;;19.40;59.20;;;;;;5107795;28;20398;-67
2023/05/14 02:40:55;;;;;;;;;;;19.40;59.20;;;;;;5108112;28;19920;-67
2023/05/14 02:43:21;;;;;;;;;;;19.40;59.20;;;;;;5098789;28;20368;-67
2023/05/14 02:45:46;;;;;;;;;;;19.40;59.20;;;;;;5095460;28;20311;-66
2023/05/14 02:48:12;;;;;;;;;;;19.40;59.20;;;;;;5095818;28;19920;-67
2023/05/14 02:50:37;;;;;;;;;;;19.40;59.20;;;;;;5093837;28;20018;-68
2023/05/14 02:53:03;;;;;;;;;;;19.40;59.20;;;;;;5093909;28;19943;-67
2023/05/14 02:55:28;;;;;;;;;;;19.30;59.20;;;;;;5093816;28;19927;-67
2023/05/14 02:57:54;;;;;;;;;;;19.40;59.20;;;;;;5095269;28;19924;-67
2023/05/14 03:00:19;;;;;;;;;;;19.30;59.20;;;;;;5094175;28;19981;-66
2023/05/14 03:02:45;;;;;;;;;;;19.30;59.20;;;;;;5094973;28;19920;-67
2023/05/14 03:05:10;;;;;;;;;;;19.30;59.20;;;;;;5094938;28;19921;-67
2023/05/14 03:07:36;;;;;;;;;;;19.30;59.20;;;;;;5093899;28;20019;-67
2023/05/14 03:10:01;;;;;;;;;;;19.30;59.20;;;;;;5093877;28;19920;-67
2023/05/14 03:12:27;;;;;;;;;;;19.40;59.20;;;;;;5093512;28;19994;-67
2023/05/14 03:14:52;;;;;;;;;;;19.30;59.20;;;;;;5093787;28;20291;-68
2023/05/14 03:17:18;;;;;;;;;;;19.30;59.20;;;;;;5094821;28;19920;-68
2023/05/14 03:19:43;;;;;;;;;;;19.30;59.20;;;;;;5094668;28;20383;-68
2023/05/14 03:22:09;;;;;;;;;;;19.30;59.20;;;;;;5093372;28;20027;-67
2023/05/14 03:24:36;;;;;;;;;;;19.20;59.20;;;;;;5093584;28;19928;-68
2023/05/14 03:27:04;;;;;;;;;;;19.20;59.20;;;;;;5094612;28;19927;-68
2023/05/14 03:29:29;;;;;;;;;;;19.20;59.20;;;;;;5093247;28;20375;-68
2023/05/14 03:31:55;;;;;;;;;;;19.30;59.20;;;;;;5106919;28;19923;-67
2023/05/14 03:34:21;;;;;;;;;;;19.20;59.20;;;;;;5096800;28;20287;-67
2023/05/14 03:36:46;;;;;;;;;;;19.20;59.20;;;;;;5096258;28;19920;-67
2023/05/14 03:39:14;;;;;;;;;;;19.20;59.20;;;;;;5096729;28;20002;-67
2023/05/14 03:41:40;;;;;;;;;;;19.20;59.20;;;;;;5114781;28;20309;-67
2023/05/14 03:44:05;;;;;;;;;;;19.20;59.20;;;;;;5114722;28;19926;-67
2023/05/14 03:46:31;;;;;;;;;;;19.10;59.20;;;;;;5096302;28;19941;-67
2023/05/14 03:48:56;;;;;;;;;;;19.20;59.30;;;;;;5096235;28;19920;-67
2023/05/14 03:51:22;;;;;;;;;;;19.20;59.30;;;;;;5096076;28;19924;-67
2023/05/14 03:53:47;;;;;;;;;;;19.10;60.00;;;;;;5095930;28;20286;-68
2023/05/14 03:56:13;;;;;;;;;;;19.10;59.30;;;;;;5113694;28;19923;-67
2023/05/14 03:58:39;;;;;;;;;;;19.10;59.30;;;;;;5095991;28;19926;-67
2023/05/14 04:01:04;;;;;;;;;;;19.10;59.30;;;;;;5096318;28;20324;-67
2023/05/14 04:03:30;;;;;;;;;;;19.10;59.30;;;;;;5096219;28;19924;-67
2023/05/14 04:05:55;;;;;;;;;;;19.10;59.30;;;;;;5096247;28;19919;-68
2023/05/14 04:08:21;;;;;;;;;;;19.20;59.30;;;;;;5096019;28;19926;-68
2023/05/14 04:10:46;;;;;;;;;;;19.10;59.30;;;;;;5095271;28;19927;-67
2023/05/14 04:13:12;;;;;;;;;;;19.10;59.30;;;;;;5095879;28;19926;-68
2023/05/14 04:15:38;;;;;;;;;;;19.00;59.30;;;;;;5114037;28;20364;-67
2023/05/14 04:18:03;;;;;;;;;;;19.10;59.30;;;;;;5095938;28;19974;-68
2023/05/14 04:20:29;;;;;;;;;;;19.00;59.30;;;;;;5095839;28;20323;-68
2023/05/14 04:22:54;;;;;;;;;;;19.00;59.30;;;;;;5095467;28;20326;-68
2023/05/14 04:25:20;;;;;;;;;;;19.00;59.30;;;;;;5113700;28;19923;-68
2023/05/14 04:27:46;;;;;;;;;;;19.00;59.30;;;;;;5095689;28;19927;-67
2023/05/14 04:30:11;;;;;;;;;;;19.10;59.40;;;;;;5113797;28;19927;-67
2023/05/14 04:32:37;;;;;;;;;;;19.00;59.30;;;;;;5094990;28;20367;-67
2023/05/14 04:35:03;;;;;;;;;;;19.00;59.30;;;;;;5095593;28;19920;-67
2023/05/14 04:37:29;;;;;;;;;;;19.00;59.30;;;;;;5095222;28;20322;-67
2023/05/14 04:39:55;;;;;;;;;;;19.00;59.30;;;;;;5113467;28;19967;-68
2023/05/14 04:42:21;;;;;;;;;;;19.00;59.40;;;;;;5095488;28;20388;-68
2023/05/14 04:44:46;;;;;;;;;;;19.00;59.30;;;;;;5095467;28;19923;-67
2023/05/14 04:47:12;;;;;;;;;;;19.00;59.40;;;;;;5095505;28;20299;-67
2023/05/14 04:49:37;;;;;;;;;;;19.00;59.40;;;;;;5095323;28;19927;-68
2023/05/14 04:52:03;;;;;;;;;;;19.00;59.40;;;;;;5094977;28;19974;-67
2023/05/14 04:54:28;;;;;;;;;;;19.00;59.40;;;;;;5095143;28;19926;-68
2023/05/14 04:56:54;;;;;;;;;;;19.00;59.40;;;;;;5094580;28;20006;-67
2023/05/14 04:59:23;;;;;;;;;;;18.90;59.30;;;;;;5094735;28;19919;-67
2023/05/14 05:01:48;;;;;;;;;;;19.00;59.40;;;;;;5094903;28;19927;-68
2023/05/14 05:04:14;;;;;;;;;;;18.90;59.40;;;;;;5094796;28;19923;-68
2023/05/14 05:06:40;;;;;;;;;;;18.90;59.40;;;;;;5112834;28;20010;-68
2023/05/14 05:09:05;;;;;;;;;;;18.90;59.40;;;;;;5112935;28;19964;-68
2023/05/14 05:11:31;;;;;;;;;;;18.90;59.40;;;;;;5094750;28;19924;-68
2023/05/14 05:13:56;;;;;;;;;;;18.90;59.40;;;;;;5094979;28;19919;-66
2023/05/14 05:16:22;;;;;;;;;;;18.90;59.40;;;;;;5094659;28;19923;-68
2023/05/14 05:18:47;;;;;;;;;;;18.90;59.40;;;;;;5094755;28;19981;-68
2023/05/14 05:21:13;;;;;;;;;;;18.90;59.40;;;;;;5094936;28;19919;-68
2023/05/14 05:23:38;;;;;;;;;;;18.90;59.40;;;;;;5094535;28;20060;-67
2023/05/14 05:26:04;;;;;;;;;;;18.90;59.40;;;;;;5112801;28;19930;-68
2023/05/14 05:28:29;;;;;;;;;;;18.90;59.50;;;;;;5094877;28;20377;-68
2023/05/14 05:30:54;;;;;;;;;;;18.90;59.40;;;;;;5094283;28;19931;-68
2023/05/14 05:33:20;;;;;;;;;;;18.90;59.50;;;;;;5094507;28;19963;-68
2023/05/14 05:35:47;;;;;;;;;;;18.90;59.40;;;;;;5094743;28;19920;-67
2023/05/14 05:38:14;;;;;;;;;;;18.90;59.40;;;;;;5094940;28;19919;-68
2023/05/14 05:40:39;;;;;;;;;;;18.90;59.50;;;;;;5094684;28;19920;-67
2023/05/14 05:43:05;;;;;;;;;;;18.90;59.40;;;;;;5112672;28;19919;-68
2023/05/14 05:45:30;;;;;;;;;;;18.90;59.40;;;;;;5094698;28;20317;-67
2023/05/14 05:47:56;;;;;;;;;;;18.90;59.40;;;;;;5094399;28;19919;-68
2023/05/14 05:50:21;;;;;;;;;;;18.90;59.40;;;;;;5094603;28;19966;-68
2023/05/14 05:52:47;;;;;;;;;;;18.90;59.40;;;;;;5112520;28;19949;-67
2023/05/14 05:55:12;;;;;;;;;;;18.90;59.40;;;;;;5094652;28;19919;-67
2023/05/14 05:57:38;;;;;;;;;;;18.90;59.40;;;;;;5112450;28;19924;-68
2023/05/14 06:00:19;;;;;;;;;;;18.90;59.40;;;;;;5112651;28;20387;-67
2023/05/14 06:02:44;;;;;;;;;;;18.90;59.40;;;;;;5112505;28;19924;-68
2023/05/14 06:05:10;;;;;;;;;;;18.90;59.40;;;;;;5093979;28;20398;-67
2023/05/14 06:07:35;;;;;;;;;;;18.90;59.40;;;;;;5112537;28;19927;-68
2023/05/14 06:10:01;;;;;;;;;;;18.90;59.40;;;;;;5094158;28;19920;-68
2023/05/14 06:12:27;;;;;;;;;;;18.90;59.40;;;;;;5094186;28;20014;-68
2023/05/14 06:14:54;;;;;;;;;;;18.80;59.30;;;;;;5094145;28;19924;-68
2023/05/14 06:17:19;;;;;;;;;;;18.90;59.30;;;;;;5094507;28;20358;-68
2023/05/14 06:19:45;;;;;;;;;;;18.90;59.30;;;;;;5116420;28;19995;-68
2023/05/14 06:22:11;;;;;;;;;;;18.90;59.30;;;;;;5116136;28;19920;-68
2023/05/14 06:24:36;;;;;;;;;;;18.90;59.30;;;;;;5098239;28;19969;-68
2023/05/14 06:27:01;;;;;;;;;;;19.00;59.40;;;;;;5115945;28;19920;-68
2023/05/14 06:29:27;;;;;;;;;;;19.00;59.40;;;;;;5098137;28;19920;-68
2023/05/14 06:31:53;;;;;;;;;;;18.90;59.30;;;;;;5097468;28;20010;-68
2023/05/14 06:34:18;;;;;;;;;;;18.90;59.30;;;;;;5097936;28;20394;-67
2023/05/14 06:36:44;;;;;;;;;;;19.00;59.40;;;;;;5096918;28;19930;-67
2023/05/14 06:39:09;;;;;;;;;;;19.00;59.30;;;;;;5097527;28;20015;-67
2023/05/14 06:41:35;;;;;;;;;;;18.90;59.30;;;;;;5097505;28;19920;-68
2023/05/14 06:44:00;;;;;;;;;;;19.00;59.30;;;;;;5097469;28;19919;-67
2023/05/14 06:46:25;;;;;;;;;;;19.00;59.30;;;;;;5115810;28;19920;-67
2023/05/14 06:48:51;;;;;;;;;;;18.90;59.30;;;;;;5115660;28;19927;-68
2023/05/14 06:51:16;;;;;;;;;;;19.00;59.30;;;;;;5097203;28;19992;-67
2023/05/14 06:53:42;;;;;;;;;;;19.00;59.30;;;;;;5097234;28;19927;-66
2023/05/14 06:56:07;;;;;;;;;;;19.00;59.30;;;;;;5097584;28;19920;-67
2023/05/14 06:58:33;;;;;;;;;;;19.00;59.30;;;;;;5097107;28;19969;-67
2023/05/14 07:00:58;;;;;;;;;;;19.00;59.30;;;;;;5097063;28;20294;-67
2023/05/14 07:03:24;;;;;;;;;;;19.00;59.30;;;;;;5097368;28;20014;-67
2023/05/14 07:05:50;;;;;;;;;;;19.00;59.30;;;;;;5115286;28;20010;-67
2023/05/14 07:08:16;;;;;;;;;;;19.00;59.30;;;;;;5097246;28;19924;-67
2023/05/14 07:10:41;;;;;;;;;;;19.00;59.30;;;;;;5097116;28;19942;-68
2023/05/14 07:13:07;;;;;;;;;;;19.00;59.30;;;;;;5096822;28;19920;-67
2023/05/14 07:15:32;;;;;;;;;;;19.00;59.30;;;;;;5115159;28;19962;-68
2023/05/14 07:17:58;;;;;;;;;;;19.00;59.30;;;;;;5096802;28;19920;-67
2023/05/14 07:20:24;;;;;;;;;;;19.00;59.30;;;;;;5097207;28;19924;-68
2023/05/14 07:22:50;;;;;;;;;;;19.00;59.30;;;;;;5096758;28;19927;-67
2023/05/14 07:25:15;;;;;;;;;;;19.00;59.30;;;;;;5096377;28;20259;-67
2023/05/14 07:27:41;;;;;;;;;;;19.00;59.30;;;;;;5095893;28;19968;-67
2023/05/14 07:30:07;;;;;;;;;;;19.00;59.30;;;;;;5114461;28;19919;-67
2023/05/14 07:32:32;;;;;;;;;;;19.00;59.30;;;;;;5096298;28;19982;-67
2023/05/14 07:34:58;;;;;;;;;;;19.00;59.30;;;;;;5096673;28;19976;-68
2023/05/14 07:37:24;;;;;;;;;;;19.10;59.30;;;;;;5114792;28;19930;-67
2023/05/14 07:39:50;;;;;;;;;;;19.00;59.20;;;;;;5096267;28;19927;-67
2023/05/14 07:42:16;;;;;;;;;;;19.00;59.20;;;;;;5114634;28;19919;-67
2023/05/14 07:44:41;;;;;;;;;;;19.00;59.20;;;;;;5096438;28;19919;-67
2023/05/14 07:47:07;;;;;;;;;;;19.00;59.20;;;;;;5096521;28;19919;-67
2023/05/14 07:49:33;;;;;;;;;;;19.00;59.20;;;;;;5114608;28;20411;-67
2023/05/14 07:51:59;;;;;;;;;;;19.10;59.20;;;;;;5096202;28;20444;-67
2023/05/14 07:54:24;;;;;;;;;;;19.10;59.20;;;;;;5096505;28;19934;-68
2023/05/14 07:56:50;;;;;;;;;;;19.10;59.10;;;;;;5114347;28;19927;-68
2023/05/14 07:59:15;;;;;;;;;;;19.10;59.10;;;;;;5114192;28;19920;-67
2023/05/14 08:01:41;;;;;;;;;;;19.10;59.10;;;;;;5114223;28;20050;-67
2023/05/14 08:04:06;;;;;;;;;;;19.10;59.10;;;;;;5096105;28;19920;-67
2023/05/14 08:06:32;;;;;;;;;;;19.10;59.10;;;;;;5095848;28;20007;-67
2023/05/14 08:08:58;;;;;;;;;;;19.10;59.10;;;;;;5114092;28;19919;-68
2023/05/14 08:11:24;;;;;;;;;;;19.10;59.10;;;;;;5095853;28;19980;-67
2023/05/14 08:13:50;;;;;;;;;;;19.10;59.10;;;;;;5095676;28;19995;-67
2023/05/14 08:16:15;;;;;;;;;;;19.20;59.10;;;;;;5113621;28;20014;-67
2023/05/14 08:18:41;;;;;;;;;;;19.20;59.00;;;;;;5095736;28;20443;-68
2023/05/14 08:21:06;;;;;;;;;;;19.20;59.80;;;;;;5095805;28;19919;-67
2023/05/14 08:23:32;;;;;;;;;;;19.20;59.00;;;;;;5114004;28;19920;-67
2023/05/14 08:25:58;;;;;;;;;;;19.20;59.00;;;;;;5095855;28;20374;-67
2023/05/14 08:28:24;;;;;;;;;;;19.20;59.00;;;;;;5095527;28;19924;-67
2023/05/14 08:30:50;;;;;;;;;;;19.20;59.00;;;;;;5095111;28;19934;-67
2023/05/14 08:33:16;;;;;;;;;;;19.20;59.00;;;;;;5113583;28;19955;-67
2023/05/14 08:35:42;;;;;;;;;;;19.20;58.90;;;;;;5095292;28;20002;-67
2023/05/14 08:38:08;;;;;;;;;;;19.20;58.90;;;;;;5113700;28;20404;-67
2023/05/14 08:40:34;;;;;;;;;;;19.20;58.90;;;;;;5094955;28;19931;-68
2023/05/14 08:43:00;;;;;;;;;;;19.20;58.90;;;;;;5095305;28;19955;-67
2023/05/14 08:45:28;;;;;;;;;;;19.20;58.80;;;;;;5113284;28;20449;-67
2023/05/14 08:47:54;;;;;;;;;;;19.20;58.90;;;;;;5095515;28;19971;-67
2023/05/14 08:50:21;;;;;;;;;;;19.20;58.80;;;;;;5095369;28;20458;-67
2023/05/14 08:52:46;;;;;;;;;;;19.20;58.70;;;;;;5113578;28;19926;-67
2023/05/14 08:55:12;;;;;;;;;;;19.20;58.70;;;;;;5095018;28;19923;-68
2023/05/14 08:57:38;;;;;;;;;;;19.30;59.40;;;;;;5095239;28;20058;-67
2023/05/14 09:00:13;;;;;;;;;;;19.20;58.60;;;;;;5113232;28;20398;-67
2023/05/14 09:02:39;;;;;;;;;;;19.30;58.70;;;;;;5095050;28;19982;-67
2023/05/14 09:05:06;;;;;;;;;;;19.30;58.60;;;;;;5113179;28;19924;-67
2023/05/14 09:07:32;;;;;;;;;;;19.30;58.60;;;;;;5113042;28;19927;-67
2023/05/14 09:09:57;;;;;;;;;;;19.30;58.70;;;;;;5095092;28;20386;-67
2023/05/14 09:12:23;;;;;;;;;;;19.30;58.60;;;;;;5094739;28;19919;-67
2023/05/14 09:14:49;;;;;;;;;;;19.30;58.60;;;;;;5095053;28;19928;-68
2023/05/14 09:17:15;;;;;;;;;;;19.30;58.60;;;;;;5112966;28;19973;-67
2023/05/14 09:19:41;;;;;;;;;;;19.30;58.50;;;;;;5094672;28;19927;-67
2023/05/14 09:22:07;;;;;;;;;;;19.30;58.60;;;;;;5094928;28;19920;-67
2023/05/14 09:24:33;;;;;;;;;;;19.30;58.60;;;;;;5094694;28;19919;-67
2023/05/14 09:26:58;;;;;;;;;;;19.30;58.50;;;;;;5094541;28;19920;-67
2023/05/14 09:29:25;;;;;;;;;;;19.30;58.60;;;;;;5094589;28;19923;-67
2023/05/14 09:31:50;;;;;;;;;;;19.30;58.60;;;;;;5112319;28;19924;-68
2023/05/14 09:34:25;;;;;;;;;;;19.30;58.60;;;;;;5094576;28;20468;-67
2023/05/14 09:36:56;;;;;;;;;;;19.30;58.60;;;;;;5093973;28;19941;-67
2023/05/14 09:39:23;;;;;;;;;;;19.30;58.50;;;;;;5112687;28;19919;-67
2023/05/14 09:41:48;;;;;;;;;;;19.40;58.60;;;;;;5094397;28;19960;-67
2023/05/14 09:44:14;;;;;;;;;;;19.40;58.70;;;;;;5094661;28;19924;-67
2023/05/14 09:46:39;;;;;;;;;;;19.40;58.60;;;;;;5112644;28;19927;-67
2023/05/14 09:49:05;;;;;;;;;;;19.40;58.70;;;;;;5112551;28;20288;-67
2023/05/14 09:51:31;;;;;;;;;;;19.40;58.60;;;;;;5094325;28;19924;-68
2023/05/14 09:53:56;;;;;;;;;;;19.40;58.60;;;;;;5115495;28;20335;-67
2023/05/14 09:56:22;;;;;;;;;;;19.40;58.60;;;;;;5098727;28;19927;-67
2023/05/14 09:58:48;;;;;;;;;;;19.40;58.60;;;;;;5098373;28;19920;-67
2023/05/14 10:01:15;;;;;;;;;;;19.40;58.60;;;;;;5098698;28;19924;-67
2023/05/14 10:03:41;;;;;;;;;;;19.40;58.60;;;;;;5098659;28;19920;-67
2023/05/14 10:06:09;;;;;;;;;;;19.40;58.60;;;;;;5116499;28;19927;-67
2023/05/14 10:08:39;;;;;;;;;;;19.40;58.60;;;;;;5116460;28;19976;-67
2023/05/14 10:11:07;;;;;;;;;;;19.40;58.60;;;;;;5098440;28;19924;-67
2023/05/14 10:13:36;;;;;;;;;;;19.50;58.60;;;;;;5116374;28;19920;-67
2023/05/14 10:16:07;;;;;;;;;;;19.50;58.60;;;;;;5081094;28;19919;-67
2023/05/14 10:18:37;;;;;;;;;;;19.50;58.60;;;;;;5097973;28;20362;-68
2023/05/14 10:21:03;;;;;;;;;;;19.50;58.50;;;;;;5116285;28;19951;-67
2023/05/14 10:23:29;;;;;;;;;;;19.50;58.60;;;;;;5116278;28;19919;-67
2023/05/14 10:25:55;;;;;;;;;;;19.50;58.50;;;;;;5098355;28;19934;-67
2023/05/14 10:28:21;;;;;;;;;;;19.50;58.50;;;;;;5116105;28;19920;-67
2023/05/14 10:30:48;;;;;;;;;;;19.50;58.50;;;;;;5097346;28;20371;-67
2023/05/14 10:33:15;;;;;;;;;;;19.50;58.50;;;;;;5097798;28;19923;-67
2023/05/14 10:38:36;;;;;;;;;;;19.50;58.50;;;;;;5089924;28;19912;-67
2023/05/14 10:41:05;;;;;;;;;;;19.50;58.50;;;;;;5088774;28;19924;-67
2023/05/14 10:43:34;;;;;;;;;;;19.50;58.60;;;;;;5088810;28;19999;-67
2023/05/14 10:46:00;;;;;;;;;;;19.50;58.50;;;;;;5088477;28;20384;-66
2023/05/14 10:48:26;;;;;;;;;;;19.50;58.50;;;;;;5088817;28;19920;-67
2023/05/14 10:50:51;;;;;;;;;;;19.50;58.60;;;;;;5088370;28;20024;-67
2023/05/14 10:53:17;;;;;;;;;;;19.50;58.60;;;;;;5088754;28;20101;-67
2023/05/14 10:55:43;;;;;;;;;;;19.50;58.70;;;;;;5088149;28;19974;-67
2023/05/14 10:58:09;;;;;;;;;;;19.50;58.70;;;;;;5088451;28;20015;-67
2023/05/14 11:00:35;;;;;;;;;;;19.50;58.70;;;;;;5088560;28;19935;-66
2023/05/14 11:03:02;;;;;;;;;;;19.50;58.70;;;;;;5088523;28;19920;-67
2023/05/14 11:05:28;;;;;;;;;;;19.50;58.80;;;;;;5088143;28;20027;-67
2023/05/14 11:07:55;;;;;;;;;;;19.50;58.80;;;;;;5089463;28;20389;-67
2023/05/14 11:10:21;;;;;;;;;;;19.50;58.80;;;;;;5089308;28;19928;-68
2023/05/14 11:12:48;;;;;;;;;;;19.50;58.80;;;;;;5088562;28;20368;-67
2023/05/14 11:15:15;;;;;;;;;;;19.50;58.80;;;;;;5087944;28;19920;-67
2023/05/14 11:17:41;;;;;;;;;;;19.50;58.80;;;;;;5087974;28;19928;-67
2023/05/14 11:20:07;;;;;;;;;;;19.50;58.80;;;;;;5089363;28;20338;-67
2023/05/14 11:22:33;;;;;;;;;;;19.50;58.80;;;;;;5088409;28;19926;-67
2023/05/14 11:24:59;;;;;;;;;;;19.50;58.90;;;;;;5087939;28;20274;-67
2023/05/14 11:27:25;;;;;;;;;;;19.50;58.90;;;;;;5088881;28;20007;-67
2023/05/14 11:29:51;;;;;;;;;;;19.50;58.90;;;;;;5089174;28;19920;-67
2023/05/14 11:32:17;;;;;;;;;;;19.50;58.90;;;;;;5089044;28;20284;-67
2023/05/14 11:34:44;;;;;;;;;;;19.60;59.00;;;;;;5087897;28;19920;-67
2023/05/14 11:37:11;;;;;;;;;;;19.50;58.90;;;;;;5087385;28;19985;-67
2023/05/14 11:39:37;;;;;;;;;;;19.50;58.90;;;;;;5087550;28;20392;-67
2023/05/14 11:42:04;;;;;;;;;;;19.50;59.00;;;;;;5087348;28;19970;-67
2023/05/14 11:44:31;;;;;;;;;;;19.50;59.10;;;;;;5087789;28;19927;-67
2023/05/14 11:46:57;;;;;;;;;;;19.50;59.00;;;;;;5088717;28;20011;-67
2023/05/14 11:49:23;;;;;;;;;;;19.50;59.10;;;;;;5077182;28;19920;-67
2023/05/14 11:51:49;;;;;;;;;;;19.50;59.10;;;;;;5073725;28;19920;-67
2023/05/14 11:54:15;;;;;;;;;;;19.50;59.10;;;;;;5075123;28;19920;-67
2023/05/14 11:56:40;;;;;;;;;;;19.50;59.10;;;;;;5073705;28;19929;-67
2023/05/14 11:59:06;;;;;;;;;;;19.50;59.10;;;;;;5073709;28;19920;-67
2023/05/14 12:01:36;;;;;;;;;;;19.50;59.10;;;;;;5073606;28;19921;-67
2023/05/14 12:04:03;;;;;;;;;;;19.50;59.10;;;;;;5074991;28;20062;-67
2023/05/14 12:06:31;;;;;;;;;;;19.50;59.10;;;;;;5074824;28;19927;-68
2023/05/14 12:08:56;;;;;;;;;;;19.50;59.10;;;;;;5075092;28;19978;-68
2023/05/14 12:11:22;;;;;;;;;;;19.50;59.80;;;;;;5073256;28;19920;-67
2023/05/14 12:13:47;;;;;;;;;;;19.50;59.20;;;;;;5073514;28;19959;-67
2023/05/14 12:16:12;;;;;;;;;;;19.50;59.10;;;;;;5073557;28;19927;-67
2023/05/14 12:18:38;;;;;;;;;;;19.50;59.20;;;;;;5074569;28;20364;-67
2023/05/14 12:21:06;;;;;;;;;;;19.60;59.30;;;;;;5073419;28;19932;-67
2023/05/14 12:23:32;;;;;;;;;;;19.50;59.20;;;;;;5073467;28;20015;-67
2023/05/14 12:26:02;;;;;;;;;;;19.60;59.30;;;;;;5073179;28;20019;-67
2023/05/14 12:28:27;;;;;;;;;;;19.50;59.10;;;;;;5073333;28;19925;-67
2023/05/14 12:30:56;;;;;;;;;;;19.60;59.30;;;;;;5073107;28;20291;-67
2023/05/14 12:33:22;;;;;;;;;;;19.60;59.30;;;;;;5072934;28;19924;-67
2023/05/14 12:35:49;;;;;;;;;;;19.60;59.30;;;;;;5072954;28;19924;-67
2023/05/14 12:38:15;;;;;;;;;;;19.60;59.30;;;;;;5072678;28;20380;-67
2023/05/14 12:40:40;;;;;;;;;;;19.60;59.20;;;;;;5072693;28;19927;-67
2023/05/14 12:43:05;;;;;;;;;;;19.60;59.20;;;;;;5072045;28;19974;-67
2023/05/14 12:45:31;;;;;;;;;;;19.70;59.30;;;;;;5074161;28;19927;-67
2023/05/14 12:47:56;;;;;;;;;;;19.60;59.20;;;;;;5073101;28;20403;-68
2023/05/14 12:50:22;;;;;;;;;;;19.60;59.20;;;;;;5072563;28;20395;-67
2023/05/14 12:52:47;;;;;;;;;;;19.60;59.20;;;;;;5072918;28;19932;-67
2023/05/14 12:55:13;;;;;;;;;;;19.60;59.10;;;;;;5074321;28;19920;-67
2023/05/14 12:57:38;;;;;;;;;;;19.60;59.20;;;;;;5072615;28;19925;-67
2023/05/14 13:00:06;;;;;;;;;;;19.60;59.10;;;;;;5073012;28;19943;-67
2023/05/14 13:02:32;;;;;;;;;;;19.60;59.10;;;;;;5072445;28;19931;-67
2023/05/14 13:04:57;;;;;;;;;;;19.60;59.10;;;;;;5072648;28;19924;-67
2023/05/14 13:07:23;;;;;;;;;;;19.60;59.10;;;;;;5072762;28;19927;-67
2023/05/14 13:09:48;;;;;;;;;;;19.60;59.10;;;;;;5073475;28;19920;-67
2023/05/14 13:12:14;;;;;;;;;;;19.60;59.10;;;;;;5072410;28;20371;-67
2023/05/14 13:14:39;;;;;;;;;;;19.70;59.20;;;;;;5072110;28;20363;-67
2023/05/14 13:17:06;;;;;;;;;;;19.60;59.10;;;;;;5072303;28;19924;-67
2023/05/14 13:19:32;;;;;;;;;;;19.70;59.10;;;;;;5073445;28;20437;-67
2023/05/14 13:21:57;;;;;;;;;;;19.70;59.10;;;;;;5073796;28;19928;-68
2023/05/14 13:24:23;;;;;;;;;;;19.70;59.20;;;;;;5072010;28;20295;-67
2023/05/14 13:26:49;;;;;;;;;;;19.70;59.10;;;;;;5073218;28;19973;-67
2023/05/14 13:29:14;;;;;;;;;;;19.60;59.10;;;;;;5071894;28;20011;-67
2023/05/14 13:31:40;;;;;;;;;;;19.70;59.20;;;;;;5071820;28;20407;-66
2023/05/14 13:34:05;;;;;;;;;;;19.70;59.20;;;;;;5073128;28;19920;-67
2023/05/14 13:36:31;;;;;;;;;;;19.70;59.10;;;;;;5071692;28;19980;-67
2023/05/14 13:38:56;;;;;;;;;;;19.70;59.10;;;;;;5071857;28;19920;-67
2023/05/14 13:41:22;;;;;;;;;;;19.70;59.10;;;;;;5072941;28;19967;-67
2023/05/14 13:43:47;;;;;;;;;;;19.70;59.10;;;;;;5071586;28;19936;-68
2023/05/14 13:46:13;;;;;;;;;;;19.70;59.10;;;;;;5071810;28;19920;-67
2023/05/14 13:48:38;;;;;;;;;;;19.70;59.10;;;;;;5072878;28;20023;-67
2023/05/14 13:51:04;;;;;;;;;;;19.70;59.10;;;;;;5072719;28;19967;-67
2023/05/14 13:53:29;;;;;;;;;;;19.70;59.10;;;;;;5071496;28;20007;-67
2023/05/14 13:55:57;;;;;;;;;;;19.70;59.10;;;;;;5071656;28;20155;-67
2023/05/14 13:58:24;;;;;;;;;;;19.70;59.10;;;;;;5072535;28;19925;-67
2023/05/14 14:00:50;;;;;;;;;;;19.70;59.10;;;;;;5071430;28;20011;-67
2023/05/14 14:03:15;;;;;;;;;;;19.70;59.10;;;;;;5071647;28;19925;-67
2023/05/14 14:05:41;;;;;;;;;;;19.70;59.00;;;;;;5071326;28;19970;-68
2023/05/14 14:08:06;;;;;;;;;;;19.80;59.00;;;;;;5071625;28;19920;-67
2023/05/14 14:10:32;;;;;;;;;;;19.80;59.00;;;;;;5071290;28;19927;-67
2023/05/14 14:12:57;;;;;;;;;;;19.80;59.00;;;;;;5071268;28;19925;-67
2023/05/14 14:15:23;;;;;;;;;;;19.80;59.00;;;;;;5072391;28;19920;-68
2023/05/14 14:17:48;;;;;;;;;;;19.80;59.00;;;;;;5071162;28;19925;-68